Maersk Barry — OYJE2 — position and weather

sailwx.info

Track history (hours):
 
Tides and Currents Weather Stations Pressure Air Temp Water Temp Dewpoint Dewpoint Depression Visibility Wind Speed Wind Dir Waves Ship Positions

Maersk Barry

Last reported at 2014-Jul-23 03:32 UTC. Time now 2014-Jul-23 03:48 UTC.
Position N 55°46' E 020°51'.

Length 175 m; draft 6.8 m.

Type: Tanker. MMSI: 219127000.

Date/timePositionNaut miles runAvg speedWind from/ knotsBaromVisibWave heightAir tempDewpointWater temp
2014-Jul-23 03:32N 55°46' E 020°51'0 0.0
2014-Jul-23 02:29N 55°46' E 020°51'0 0.0
2014-Jul-23 01:32N 55°46' E 020°51'0 0.0
2014-Jul-22 18:29N 55°46' E 020°51'0 0.0
2014-Jul-22 17:32N 55°46' E 020°52'0 0.0
2014-Jul-22 16:29N 55°46' E 020°51'0 0.0
2014-Jul-22 15:29N 55°46' E 020°52'0 0.0
2014-Jul-22 14:32N 55°46' E 020°52'0 0.0
2014-Jul-22 13:20N 55°46' E 020°52'0 0.0
2014-Jul-22 12:23N 55°46' E 020°52'0 0.0
2014-Jul-22 11:32N 55°46' E 020°52'0 0.0
2014-Jul-22 07:29N 55°46' E 020°52'0 0.0
2014-Jul-22 06:32N 55°46' E 020°52'0 0.0
2014-Jul-22 05:29N 55°46' E 020°52'0 0.0
2014-Jul-21 18:32N 55°46' E 020°51'0 0.0
2014-Jul-20 21:23N 55°46' E 020°51'0 0.0
2014-Jul-20 20:32N 55°46' E 020°51'0 0.0
2014-Jul-20 19:23N 55°46' E 020°51'0 0.0
2014-Jul-20 18:32N 55°46' E 020°51'0 0.0
2014-Jul-20 17:32N 55°46' E 020°51'0 0.0
2014-Jul-20 16:32N 55°46' E 020°52'0 0.0
2014-Jul-20 15:32N 55°46' E 020°51'0 0.0
2014-Jul-20 14:32N 55°46' E 020°52'0 0.0
2014-Jul-20 13:32N 55°46' E 020°52'0 0.0
2014-Jul-20 12:29N 55°46' E 020°52'0 0.0
2014-Jul-20 11:32N 55°46' E 020°52'0 0.0
2014-Jul-20 10:32N 55°46' E 020°52'0 0.0
2014-Jul-20 09:20N 55°46' E 020°52'0 0.0
2014-Jul-20 08:32N 55°46' E 020°52'0 0.1
2014-Jul-20 07:29N 55°46' E 020°51'0 0.1
2014-Jul-20 06:29N 55°46' E 020°51'0 0.0
2014-Jul-20 05:23N 55°46' E 020°51'0 0.0
2014-Jul-20 04:29N 55°46' E 020°51'0 0.0
2014-Jul-20 03:29N 55°46' E 020°51'0 0.0
2014-Jul-20 02:20N 55°46' E 020°51'0 0.0
2014-Jul-20 01:11N 55°46' E 020°51'0 0.0
2014-Jul-20 00:32N 55°46' E 020°51'0 0.0
2014-Jul-19 23:29N 55°46' E 020°51'0 0.0
2014-Jul-19 22:32N 55°46' E 020°51'0 0.0
2014-Jul-19 21:32N 55°46' E 020°51'0 0.0
2014-Jul-19 20:32N 55°46' E 020°51'0 0.0
2014-Jul-19 19:29N 55°46' E 020°51'0 0.0
2014-Jul-19 18:32N 55°46' E 020°52'1 1.1
2014-Jul-19 17:33N 55°45' E 020°50'1111.4
2014-Jul-19 16:33N 55°40' E 020°32'1212.0
2014-Jul-19 15:33N 55°35' E 020°13'1212.4
2014-Jul-19 14:33N 55°31' E 019°52'1312.5
2014-Jul-19 13:33N 55°26' E 019°32'1212.5
2014-Jul-19 12:33N 55°22' E 019°11'1212.5
2014-Jul-19 11:33N 55°17' E 018°51'1211.9
2014-Jul-19 10:33N 55°17' E 018°30'1212.0
2014-Jul-19 09:33N 55°19' E 018°09'1212.2
2014-Jul-19 08:33N 55°20' E 017°48'1212.4
2014-Jul-19 07:33N 55°22' E 017°26'10 9.8
2014-Jul-19 06:33N 55°22' E 017°09'7 7.5
2014-Jul-19 05:33N 55°24' E 016°56'8 7.7
2014-Jul-19 04:33N 55°24' E 016°43'8 8.1
2014-Jul-19 03:33N 55°25' E 016°28'8 8.3
2014-Jul-19 02:33N 55°25' E 016°14'8 8.4
2014-Jul-19 01:33N 55°26' E 015°59'8 8.4
2014-Jul-19 00:33N 55°27' E 015°44'8 8.2
2014-Jul-18 23:33N 55°28' E 015°30'8 8.2
2014-Jul-18 22:33N 55°28' E 015°15'8 8.1
2014-Jul-18 21:33N 55°29' E 015°01'8 8.2
2014-Jul-18 20:33N 55°25' E 014°48'8 8.1
2014-Jul-18 19:33N 55°21' E 014°36'8 8.2
2014-Jul-18 18:33N 55°15' E 014°27'8 7.7
2014-Jul-18 17:34N 55°10' E 014°16'10 9.8
2014-Jul-18 16:33N 55°10' E 013°59'1211.8
2014-Jul-18 15:33N 55°10' E 013°38'1211.8
2014-Jul-18 14:33N 55°11' E 013°17'1211.6
2014-Jul-18 13:33N 55°14' E 012°58'1111.5
2014-Jul-18 12:33N 55°18' E 012°39'1110.9
2014-Jul-18 11:33N 55°29' E 012°41'10 9.8
2014-Jul-18 10:33N 55°38' E 012°41'1110.8
2014-Jul-18 09:33N 55°49' E 012°42'1111.0
2014-Jul-18 08:33N 55°60' E 012°38'9 9.4
2014-Jul-18 07:33N 56°08' E 012°29'1111.0
2014-Jul-18 06:33N 56°14' E 012°12'1111.0
2014-Jul-18 05:33N 56°23' E 012°01'1211.4
2014-Jul-18 04:33N 56°34' E 011°56'1211.6
2014-Jul-18 03:33N 56°45' E 011°52'1111.5
2014-Jul-18 02:33N 56°56' E 011°44'1211.7
2014-Jul-18 01:33N 57°07' E 011°37'1211.8
2014-Jul-18 00:33N 57°18' E 011°29'1211.5
2014-Jul-17 23:32N 57°29' E 011°21'1212.2
2014-Jul-17 22:33N 57°37' E 011°05'1212.0
2014-Jul-17 21:33N 57°45' E 010°48'1212.1
2014-Jul-17 20:33N 57°47' E 010°26'1212.3
2014-Jul-17 19:33N 57°47' E 010°03'53 6.6
2014-Jul-17 11:33N 57°23' E 008°35'1312.6
2014-Jul-17 10:33N 57°17' E 008°14'313 8.4
2014-Jul-15 21:33N 53°07' E 002°45'26 8.4
2014-Jul-15 18:25N 52°41' E 002°42'910.1
2014-Jul-15 17:33N 52°32' E 002°41'1110.1
2014-Jul-15 16:28N 52°22' E 002°42'1111.9
2014-Jul-15 15:34N 52°13' E 002°51'1312.6
2014-Jul-15 14:33N 52°04' E 003°06'1312.6
2014-Jul-15 13:33N 52°04' E 003°27'1111.5
2014-Jul-15 12:33N 52°00' E 003°45'3 3.1
2014-Jul-15 11:31N 51°57' E 003°46'0 0.0
2014-Jul-15 10:28N 51°57' E 003°46'0 0.1
2014-Jul-15 09:31N 51°57' E 003°46'0 0.2
2014-Jul-15 08:25N 51°57' E 003°47'0 0.0
2014-Jul-15 07:31N 51°57' E 003°47'0 0.0
2014-Jul-15 06:13N 51°57' E 003°47'0 0.0
2014-Jul-15 04:31N 51°57' E 003°47'0 0.0
2014-Jul-15 03:28N 51°57' E 003°47'0 0.0
2014-Jul-15 02:28N 51°57' E 003°47'0 0.0
2014-Jul-15 01:28N 51°57' E 003°47'0 0.1
2014-Jul-15 00:31N 51°57' E 003°46'0 0.2
2014-Jul-14 23:25N 51°57' E 003°46'0 0.0
2014-Jul-14 22:32N 51°57' E 003°46'0 0.0
2014-Jul-14 21:32N 51°57' E 003°46'0 0.1
2014-Jul-14 20:19N 51°57' E 003°47'0 0.1
2014-Jul-14 19:31N 51°57' E 003°47'0 0.0
2014-Jul-14 16:31N 51°57' E 003°47'0 0.0
2014-Jul-14 15:16N 51°57' E 003°47'0 0.0
2014-Jul-14 14:16N 51°57' E 003°47'0 0.1
2014-Jul-14 13:04N 51°57' E 003°46'0 0.1
2014-Jul-14 12:28N 51°57' E 003°46'0 0.1
2014-Jul-14 11:31N 51°57' E 003°46'0 0.0
2014-Jul-14 10:25N 51°57' E 003°46'0 0.0
2014-Jul-14 09:25N 51°57' E 003°46'0 0.1
2014-Jul-14 08:31N 51°57' E 003°46'0 0.1
2014-Jul-14 05:31N 51°57' E 003°47'0 0.0
2014-Jul-14 04:13N 51°57' E 003°47'0 0.0
2014-Jul-14 03:13N 51°57' E 003°47'0 0.0
2014-Jul-14 02:31N 51°57' E 003°46'0 0.0
2014-Jul-14 01:25N 51°57' E 003°47'0 0.2
2014-Jul-14 00:28N 51°57' E 003°46'0 0.0
2014-Jul-13 23:31N 51°57' E 003°46'0 0.0
2014-Jul-13 22:31N 51°57' E 003°46'0 0.0
2014-Jul-13 20:16N 51°57' E 003°46'0 0.1
2014-Jul-13 19:13N 51°57' E 003°47'0 0.1
2014-Jul-13 17:25N 51°57' E 003°47'0 0.0
2014-Jul-13 14:07N 51°57' E 003°47'0 0.0
2014-Jul-13 13:28N 51°57' E 003°47'0 0.0
2014-Jul-13 12:16N 51°57' E 003°47'0 0.1
2014-Jul-13 11:22N 51°57' E 003°46'0 0.1
2014-Jul-13 10:31N 51°57' E 003°46'0 0.0
2014-Jul-13 09:31N 51°57' E 003°46'0 0.0
2014-Jul-13 08:31N 51°57' E 003°46'0 0.0
2014-Jul-13 07:31N 51°57' E 003°46'0 0.1
2014-Jul-13 06:25N 51°57' E 003°46'0 0.0
2014-Jul-13 04:28N 51°57' E 003°47'  
Track history (hours):
 
Tides and Currents Weather Stations Pressure Air Temp Water Temp Dewpoint Dewpoint Depression Visibility Wind Speed Wind Dir Waves Ship Positions

Maersk Barry

Last reported at 2014-Jul-23 03:32 UTC. Time now 2014-Jul-23 03:48 UTC.
Position N 55°46' E 020°51'.

Length 175 m; draft 6.8 m.

Type: Tanker. MMSI: 219127000.

Date/timePositionNaut miles runAvg speedWind from/ knotsBaromVisibWave heightAir tempDewpointWater temp
2014-Jul-23 03:32N 55°46' E 020°51'0 0.0
2014-Jul-23 02:29N 55°46' E 020°51'0 0.0
2014-Jul-23 01:32N 55°46' E 020°51'0 0.0
2014-Jul-22 18:29N 55°46' E 020°51'0 0.0
2014-Jul-22 17:32N 55°46' E 020°52'0 0.0
2014-Jul-22 16:29N 55°46' E 020°51'0 0.0
2014-Jul-22 15:29N 55°46' E 020°52'0 0.0
2014-Jul-22 14:32N 55°46' E 020°52'0 0.0
2014-Jul-22 13:20N 55°46' E 020°52'0 0.0
2014-Jul-22 12:23N 55°46' E 020°52'0 0.0
2014-Jul-22 11:32N 55°46' E 020°52'0 0.0
2014-Jul-22 07:29N 55°46' E 020°52'0 0.0
2014-Jul-22 06:32N 55°46' E 020°52'0 0.0
2014-Jul-22 05:29N 55°46' E 020°52'0 0.0
2014-Jul-21 18:32N 55°46' E 020°51'0 0.0
2014-Jul-20 21:23N 55°46' E 020°51'0 0.0
2014-Jul-20 20:32N 55°46' E 020°51'0 0.0
2014-Jul-20 19:23N 55°46' E 020°51'0 0.0
2014-Jul-20 18:32N 55°46' E 020°51'0 0.0
2014-Jul-20 17:32N 55°46' E 020°51'0 0.0
2014-Jul-20 16:32N 55°46' E 020°52'0 0.0
2014-Jul-20 15:32N 55°46' E 020°51'0 0.0
2014-Jul-20 14:32N 55°46' E 020°52'0 0.0
2014-Jul-20 13:32N 55°46' E 020°52'0 0.0
2014-Jul-20 12:29N 55°46' E 020°52'0 0.0
2014-Jul-20 11:32N 55°46' E 020°52'0 0.0
2014-Jul-20 10:32N 55°46' E 020°52'0 0.0
2014-Jul-20 09:20N 55°46' E 020°52'0 0.0
2014-Jul-20 08:32N 55°46' E 020°52'0 0.1
2014-Jul-20 07:29N 55°46' E 020°51'0 0.1
2014-Jul-20 06:29N 55°46' E 020°51'0 0.0
2014-Jul-20 05:23N 55°46' E 020°51'0 0.0
2014-Jul-20 04:29N 55°46' E 020°51'0 0.0
2014-Jul-20 03:29N 55°46' E 020°51'0 0.0
2014-Jul-20 02:20N 55°46' E 020°51'0 0.0
2014-Jul-20 01:11N 55°46' E 020°51'0 0.0
2014-Jul-20 00:32N 55°46' E 020°51'0 0.0
2014-Jul-19 23:29N 55°46' E 020°51'0 0.0
2014-Jul-19 22:32N 55°46' E 020°51'0 0.0
2014-Jul-19 21:32N 55°46' E 020°51'0 0.0
2014-Jul-19 20:32N 55°46' E 020°51'0 0.0
2014-Jul-19 19:29N 55°46' E 020°51'0 0.0
2014-Jul-19 18:32N 55°46' E 020°52'1 1.1
2014-Jul-19 17:33N 55°45' E 020°50'1111.4
2014-Jul-19 16:33N 55°40' E 020°32'1212.0
2014-Jul-19 15:33N 55°35' E 020°13'1212.4
2014-Jul-19 14:33N 55°31' E 019°52'1312.5
2014-Jul-19 13:33N 55°26' E 019°32'1212.5
2014-Jul-19 12:33N 55°22' E 019°11'1212.5
2014-Jul-19 11:33N 55°17' E 018°51'1211.9
2014-Jul-19 10:33N 55°17' E 018°30'1212.0
2014-Jul-19 09:33N 55°19' E 018°09'1212.2
2014-Jul-19 08:33N 55°20' E 017°48'1212.4
2014-Jul-19 07:33N 55°22' E 017°26'10 9.8
2014-Jul-19 06:33N 55°22' E 017°09'7 7.5
2014-Jul-19 05:33N 55°24' E 016°56'8 7.7
2014-Jul-19 04:33N 55°24' E 016°43'8 8.1
2014-Jul-19 03:33N 55°25' E 016°28'8 8.3
2014-Jul-19 02:33N 55°25' E 016°14'8 8.4
2014-Jul-19 01:33N 55°26' E 015°59'8 8.4
2014-Jul-19 00:33N 55°27' E 015°44'8 8.2
2014-Jul-18 23:33N 55°28' E 015°30'8 8.2
2014-Jul-18 22:33N 55°28' E 015°15'8 8.1
2014-Jul-18 21:33N 55°29' E 015°01'8 8.2
2014-Jul-18 20:33N 55°25' E 014°48'8 8.1
2014-Jul-18 19:33N 55°21' E 014°36'8 8.2
2014-Jul-18 18:33N 55°15' E 014°27'8 7.7
2014-Jul-18 17:34N 55°10' E 014°16'10 9.8
2014-Jul-18 16:33N 55°10' E 013°59'1211.8
2014-Jul-18 15:33N 55°10' E 013°38'1211.8
2014-Jul-18 14:33N 55°11' E 013°17'1211.6
2014-Jul-18 13:33N 55°14' E 012°58'1111.5
2014-Jul-18 12:33N 55°18' E 012°39'1110.9
2014-Jul-18 11:33N 55°29' E 012°41'10 9.8
2014-Jul-18 10:33N 55°38' E 012°41'1110.8
2014-Jul-18 09:33N 55°49' E 012°42'1111.0
2014-Jul-18 08:33N 55°60' E 012°38'9 9.4
2014-Jul-18 07:33N 56°08' E 012°29'1111.0
2014-Jul-18 06:33N 56°14' E 012°12'1111.0
2014-Jul-18 05:33N 56°23' E 012°01'1211.4
2014-Jul-18 04:33N 56°34' E 011°56'1211.6
2014-Jul-18 03:33N 56°45' E 011°52'1111.5
2014-Jul-18 02:33N 56°56' E 011°44'1211.7
2014-Jul-18 01:33N 57°07' E 011°37'1211.8
2014-Jul-18 00:33N 57°18' E 011°29'1211.5
2014-Jul-17 23:32N 57°29' E 011°21'1212.2
2014-Jul-17 22:33N 57°37' E 011°05'1212.0
2014-Jul-17 21:33N 57°45' E 010°48'1212.1
2014-Jul-17 20:33N 57°47' E 010°26'1212.3
2014-Jul-17 19:33N 57°47' E 010°03'53 6.6
2014-Jul-17 11:33N 57°23' E 008°35'1312.6
2014-Jul-17 10:33N 57°17' E 008°14'313 8.4
2014-Jul-15 21:33N 53°07' E 002°45'26 8.4
2014-Jul-15 18:25N 52°41' E 002°42'910.1
2014-Jul-15 17:33N 52°32' E 002°41'1110.1
2014-Jul-15 16:28N 52°22' E 002°42'1111.9
2014-Jul-15 15:34N 52°13' E 002°51'1312.6
2014-Jul-15 14:33N 52°04' E 003°06'1312.6
2014-Jul-15 13:33N 52°04' E 003°27'1111.5
2014-Jul-15 12:33N 52°00' E 003°45'3 3.1
2014-Jul-15 11:31N 51°57' E 003°46'0 0.0
2014-Jul-15 10:28N 51°57' E 003°46'0 0.1
2014-Jul-15 09:31N 51°57' E 003°46'0 0.2
2014-Jul-15 08:25N 51°57' E 003°47'0 0.0
2014-Jul-15 07:31N 51°57' E 003°47'0 0.0
2014-Jul-15 06:13N 51°57' E 003°47'0 0.0
2014-Jul-15 04:31N 51°57' E 003°47'0 0.0
2014-Jul-15 03:28N 51°57' E 003°47'0 0.0
2014-Jul-15 02:28N 51°57' E 003°47'0 0.0
2014-Jul-15 01:28N 51°57' E 003°47'0 0.1
2014-Jul-15 00:31N 51°57' E 003°46'0 0.2
2014-Jul-14 23:25N 51°57' E 003°46'0 0.0
2014-Jul-14 22:32N 51°57' E 003°46'0 0.0
2014-Jul-14 21:32N 51°57' E 003°46'0 0.1
2014-Jul-14 20:19N 51°57' E 003°47'0 0.1
2014-Jul-14 19:31N 51°57' E 003°47'0 0.0
2014-Jul-14 16:31N 51°57' E 003°47'0 0.0
2014-Jul-14 15:16N 51°57' E 003°47'0 0.0
2014-Jul-14 14:16N 51°57' E 003°47'0 0.1
2014-Jul-14 13:04N 51°57' E 003°46'0 0.1
2014-Jul-14 12:28N 51°57' E 003°46'0 0.1
2014-Jul-14 11:31N 51°57' E 003°46'0 0.0
2014-Jul-14 10:25N 51°57' E 003°46'0 0.0
2014-Jul-14 09:25N 51°57' E 003°46'0 0.1
2014-Jul-14 08:31N 51°57' E 003°46'0 0.1
2014-Jul-14 05:31N 51°57' E 003°47'0 0.0
2014-Jul-14 04:13N 51°57' E 003°47'0 0.0
2014-Jul-14 03:13N 51°57' E 003°47'0 0.0
2014-Jul-14 02:31N 51°57' E 003°46'0 0.0
2014-Jul-14 01:25N 51°57' E 003°47'0 0.2
2014-Jul-14 00:28N 51°57' E 003°46'0 0.0
2014-Jul-13 23:31N 51°57' E 003°46'0 0.0
2014-Jul-13 22:31N 51°57' E 003°46'0 0.0
2014-Jul-13 20:16N 51°57' E 003°46'0 0.1
2014-Jul-13 19:13N 51°57' E 003°47'0 0.1
2014-Jul-13 17:25N 51°57' E 003°47'0 0.0
2014-Jul-13 14:07N 51°57' E 003°47'0 0.0
2014-Jul-13 13:28N 51°57' E 003°47'0 0.0
2014-Jul-13 12:16N 51°57' E 003°47'0 0.1
2014-Jul-13 11:22N 51°57' E 003°46'0 0.1
2014-Jul-13 10:31N 51°57' E 003°46'0 0.0
2014-Jul-13 09:31N 51°57' E 003°46'0 0.0
2014-Jul-13 08:31N 51°57' E 003°46'0 0.0
2014-Jul-13 07:31N 51°57' E 003°46'0 0.1
2014-Jul-13 06:25N 51°57' E 003°46'0 0.0
2014-Jul-13 04:28N 51°57' E 003°47'  

Dump ship's entire track history